Time;durP1;ratioP1;P1;durP2;ratioP2;P2;SDS_P1;SDS_P2;PMS_P1;PMS_P2;Temp;Humidity;BMP_temperature;BMP_pressure;BME280_temperature;BME280_humidity;BME280_pressure;Samples;Min_cycle;Max_cycle;Signal;HPM_P1;HPM_P2
2023/07/15 00:00:41;;;;;;;;;;;;;;;;;;5001489;28;19984;-85
2023/07/15 00:03:07;;;;;;;;;;;;;;;;;;5002156;28;20020;-87
2023/07/15 00:05:37;;;;;;;;;;;;;;;;;;5018592;28;19964;-87
2023/07/15 00:08:03;;;;;;;;;;;;;;;;;;5002183;28;20008;-88
2023/07/15 00:10:29;;;;;;;;;;;;;;;;;;5002001;28;20351;-88
2023/07/15 00:12:55;;;;;;;;;;;;;;;;;;5002139;28;19983;-87
2023/07/15 00:15:21;;;;;;;;;;;;;;;;;;5001772;28;20426;-86
2023/07/15 00:17:47;;;;;;;;;;;;;;;;;;5018407;28;19921;-87
2023/07/15 00:20:18;;;;;;;;;;;;;;;;;;5001295;28;19944;-88
2023/07/15 00:22:44;;;;;;;;;;;;;;;;;;5001208;28;19924;-88
2023/07/15 00:25:10;;;;;;;;;;;;;;;;;;5001735;28;19928;-88
2023/07/15 00:27:36;;;;;;;;;;;;;;;;;;5018851;28;19921;-87
2023/07/15 00:30:02;;;;;;;;;;;;;;;;;;5001374;28;20377;-86
2023/07/15 00:32:28;;;;;;;;;;;;;;;;;;5001933;28;20411;-87
2023/07/15 00:34:54;;;;;;;;;;;;;;;;;;5017601;28;19974;-87
2023/07/15 00:37:20;;;;;;;;;;;;;;;;;;5001613;28;19921;-88
2023/07/15 00:39:46;;;;;;;;;;;;;;;;;;5017605;28;19974;-86
2023/07/15 00:42:12;;;;;;;;;;;;;;;;;;5001441;28;20326;-87
2023/07/15 00:44:38;;;;;;;;;;;;;;;;;;5017740;28;19925;-88
2023/07/15 00:47:05;;;;;;;;;;;;;;;;;;5000819;28;19932;-87
2023/07/15 00:49:31;;;;;;;;;;;;;;;;;;4981385;28;20348;-87
2023/07/15 00:51:57;;;;;;;;;;;;;;;;;;4998249;28;19933;-87
2023/07/15 00:54:23;;;;;;;;;;;;;;;;;;4999307;28;19948;-87
2023/07/15 00:56:49;;;;;;;;;;;;;;;;;;5005045;28;19921;-88
2023/07/15 00:59:15;;;;;;;;;;;;;;;;;;5004960;28;20346;-88
2023/07/15 01:01:41;;;;;;;;;;;;;;;;;;5004142;28;19932;-87
2023/07/15 01:04:07;;;;;;;;;;;;;;;;;;5020691;28;19928;-87
2023/07/15 01:06:35;;;;;;;;;;;;;;;;;;5004610;28;20075;-89
2023/07/15 01:09:04;;;;;;;;;;;;;;;;;;5005335;28;19921;-86
2023/07/15 01:11:31;;;;;;;;;;;;;;;;;;5021426;28;19972;-88
2023/07/15 01:13:57;;;;;;;;;;;;;;;;;;5020862;28;19925;-86
2023/07/15 01:16:23;;;;;;;;;;;;;;;;;;5004003;28;19921;-88
2023/07/15 01:18:50;;;;;;;;;;;;;;;;;;5004375;28;19921;-86
2023/07/15 01:21:19;;;;;;;;;;;;;;;;;;5003736;28;19964;-87
2023/07/15 01:23:45;;;;;;;;;;;;;;;;;;5004416;28;20016;-86
2023/07/15 01:26:11;;;;;;;;;;;;;;;;;;5020685;28;19949;-88
2023/07/15 01:28:37;;;;;;;;;;;;;;;;;;5003911;28;19935;-88
2023/07/15 01:31:03;;;;;;;;;;;;;;;;;;5003857;28;20402;-87
2023/07/15 01:33:29;;;;;;;;;;;;;;;;;;5003991;28;20319;-86
2023/07/15 01:35:55;;;;;;;;;;;;;;;;;;5004269;28;20403;-87
2023/07/15 01:38:21;;;;;;;;;;;;;;;;;;5003582;28;20008;-85
2023/07/15 01:40:47;;;;;;;;;;;;;;;;;;5019363;28;20462;-87
2023/07/15 01:43:13;;;;;;;;;;;;;;;;;;5019930;28;19921;-86
2023/07/15 01:45:39;;;;;;;;;;;;;;;;;;5003370;28;20388;-87
2023/07/15 01:48:05;;;;;;;;;;;;;;;;;;5018891;28;20335;-87
2023/07/15 01:50:31;;;;;;;;;;;;;;;;;;5002649;28;19921;-85
2023/07/15 01:52:57;;;;;;;;;;;;;;;;;;5003062;28;19932;-86
2023/07/15 01:55:23;;;;;;;;;;;;;;;;;;5003170;28;20295;-86
2023/07/15 01:57:49;;;;;;;;;;;;;;;;;;5003130;28;19921;-87
2023/07/15 02:00:16;;;;;;;;;;;;;;;;;;5002937;28;19928;-85
2023/07/15 02:02:42;;;;;;;;;;;;;;;;;;5002596;28;19921;-85
2023/07/15 02:05:09;;;;;;;;;;;;;;;;;;5002268;28;19921;-86
2023/07/15 02:07:35;;;;;;;;;;;;;;;;;;5003122;28;19921;-87
2023/07/15 02:10:01;;;;;;;;;;;;;;;;;;5002870;28;19921;-86
2023/07/15 02:12:28;;;;;;;;;;;;;;;;;;5003105;28;19948;-86
2023/07/15 02:14:53;;;;;;;;;;;;;;;;;;5002986;28;20375;-87
2023/07/15 02:17:22;;;;;;;;;;;;;;;;;;5002559;28;19951;-84
2023/07/15 02:19:48;;;;;;;;;;;;;;;;;;5002287;28;20368;-86
2023/07/15 02:22:14;;;;;;;;;;;;;;;;;;5002584;28;19932;-84
2023/07/15 02:24:40;;;;;;;;;;;;;;;;;;5002459;28;19921;-86
2023/07/15 02:27:06;;;;;;;;;;;;;;;;;;5003114;28;19921;-86
2023/07/15 02:29:32;;;;;;;;;;;;;;;;;;5002587;28;19921;-85
2023/07/15 02:31:58;;;;;;;;;;;;;;;;;;5018457;28;19951;-87
2023/07/15 02:34:24;;;;;;;;;;;;;;;;;;5002383;28;20014;-86
2023/07/15 02:36:50;;;;;;;;;;;;;;;;;;5002115;28;19921;-87
2023/07/15 02:39:16;;;;;;;;;;;;;;;;;;5002391;28;19928;-85
2023/07/15 02:41:43;;;;;;;;;;;;;;;;;;5002540;28;20004;-87
2023/07/15 02:44:08;;;;;;;;;;;;;;;;;;5019182;28;19921;-88
2023/07/15 02:46:34;;;;;;;;;;;;;;;;;;5018948;28;19936;-86
2023/07/15 02:49:00;;;;;;;;;;;;;;;;;;5002377;28;19921;-86
2023/07/15 02:51:26;;;;;;;;;;;;;;;;;;5001787;28;19928;-86
2023/07/15 02:53:52;;;;;;;;;;;;;;;;;;5001215;28;20367;-86
2023/07/15 02:56:18;;;;;;;;;;;;;;;;;;5000588;28;19982;-86
2023/07/15 02:58:44;;;;;;;;;;;;;;;;;;5000505;28;19925;-86
2023/07/15 03:01:11;;;;;;;;;;;;;;;;;;5000728;28;19948;-86
2023/07/15 03:03:37;;;;;;;;;;;;;;;;;;5000468;28;20379;-86
2023/07/15 03:06:03;;;;;;;;;;;;;;;;;;5000696;28;19928;-87
2023/07/15 03:08:29;;;;;;;;;;;;;;;;;;5017286;28;19921;-87
2023/07/15 03:10:55;;;;;;;;;;;;;;;;;;5000440;28;20360;-85
2023/07/15 03:13:21;;;;;;;;;;;;;;;;;;5016470;28;19931;-86
2023/07/15 03:15:47;;;;;;;;;;;;;;;;;;5016278;28;20343;-87
2023/07/15 03:18:13;;;;;;;;;;;;;;;;;;5016921;28;19921;-86
2023/07/15 03:20:39;;;;;;;;;;;;;;;;;;4999941;28;19921;-86
2023/07/15 03:23:05;;;;;;;;;;;;;;;;;;5001560;28;19980;-85
2023/07/15 03:25:31;;;;;;;;;;;;;;;;;;5002061;28;20040;-86
2023/07/15 03:27:56;;;;;;;;;;;;;;;;;;5001334;28;19920;-87
2023/07/15 03:30:22;;;;;;;;;;;;;;;;;;5017749;28;19978;-85
2023/07/15 03:32:48;;;;;;;;;;;;;;;;;;5001877;28;19932;-86
2023/07/15 03:35:14;;;;;;;;;;;;;;;;;;5017537;28;19929;-86
2023/07/15 03:37:40;;;;;;;;;;;;;;;;;;5001410;28;20288;-85
2023/07/15 03:40:07;;;;;;;;;;;;;;;;;;5000970;28;19927;-86
2023/07/15 03:42:33;;;;;;;;;;;;;;;;;;5002180;28;19943;-86
2023/07/15 03:44:59;;;;;;;;;;;;;;;;;;5001126;28;19984;-87
2023/07/15 03:47:25;;;;;;;;;;;;;;;;;;5001031;28;20390;-87
2023/07/15 03:49:51;;;;;;;;;;;;;;;;;;5000951;28;19928;-85
2023/07/15 03:52:17;;;;;;;;;;;;;;;;;;5002081;28;19921;-86
2023/07/15 03:54:43;;;;;;;;;;;;;;;;;;5001155;28;20015;-86
2023/07/15 03:57:09;;;;;;;;;;;;;;;;;;5001010;28;20019;-85
2023/07/15 03:59:35;;;;;;;;;;;;;;;;;;5000423;28;19921;-86
2023/07/15 04:02:01;;;;;;;;;;;;;;;;;;5001158;28;19921;-86
2023/07/15 04:04:27;;;;;;;;;;;;;;;;;;5017909;28;19927;-85
2023/07/15 04:06:54;;;;;;;;;;;;;;;;;;5001925;28;19925;-86
2023/07/15 04:09:20;;;;;;;;;;;;;;;;;;5001684;28;19921;-87
2023/07/15 04:11:46;;;;;;;;;;;;;;;;;;5000367;28;20295;-86
2023/07/15 04:14:12;;;;;;;;;;;;;;;;;;5000275;28;19925;-86
2023/07/15 04:19:32;;;;;;;;;;;;;;;;;;5017463;28;19944;-87
2023/07/15 04:21:58;;;;;;;;;;;;;;;;;;5017937;28;20391;-87
2023/07/15 04:24:24;;;;;;;;;;;;;;;;;;5017755;28;20148;-86
2023/07/15 04:26:53;;;;;;;;;;;;;;;;;;5018359;28;20299;-85
2023/07/15 04:29:18;;;;;;;;;;;;;;;;;;5003633;28;20004;-87
2023/07/15 04:31:44;;;;;;;;;;;;;;;;;;5004693;28;19925;-87
2023/07/15 04:34:10;;;;;;;;;;;;;;;;;;5005069;28;19932;-87
2023/07/15 04:36:36;;;;;;;;;;;;;;;;;;5005060;28;19927;-86
2023/07/15 04:39:02;;;;;;;;;;;;;;;;;;5021272;28;19995;-85
2023/07/15 04:41:28;;;;;;;;;;;;;;;;;;5020736;28;19921;-87
2023/07/15 04:43:55;;;;;;;;;;;;;;;;;;5005142;28;20008;-85
2023/07/15 04:46:21;;;;;;;;;;;;;;;;;;5005703;28;19928;-87
2023/07/15 04:48:47;;;;;;;;;;;;;;;;;;5021264;28;19921;-87
2023/07/15 04:51:13;;;;;;;;;;;;;;;;;;5005357;28;19951;-85
2023/07/15 04:53:43;;;;;;;;;;;;;;;;;;5020411;28;19984;-87
2023/07/15 04:56:09;;;;;;;;;;;;;;;;;;5004230;28;19921;-86
2023/07/15 04:58:35;;;;;;;;;;;;;;;;;;5021302;28;20411;-85
2023/07/15 05:01:01;;;;;;;;;;;;;;;;;;5020364;28;19922;-84
2023/07/15 05:03:30;;;;;;;;;;;;;;;;;;5004189;28;19921;-85
2023/07/15 05:05:56;;;;;;;;;;;;;;;;;;5020926;28;20003;-87
2023/07/15 05:08:22;;;;;;;;;;;;;;;;;;5004360;28;19928;-87
2023/07/15 05:10:54;;;;;;;;;;;;;;;;;;5020272;28;19921;-87
2023/07/15 05:13:20;;;;;;;;;;;;;;;;;;5004518;28;20268;-86
2023/07/15 05:15:46;;;;;;;;;;;;;;;;;;5004118;28;20007;-86
2023/07/15 05:18:11;;;;;;;;;;;;;;;;;;5003924;28;19921;-86
2023/07/15 05:20:37;;;;;;;;;;;;;;;;;;5003048;28;20379;-86
2023/07/15 05:23:03;;;;;;;;;;;;;;;;;;5004260;28;20257;-86
2023/07/15 05:25:29;;;;;;;;;;;;;;;;;;5019995;28;19921;-86
2023/07/15 05:27:55;;;;;;;;;;;;;;;;;;5020156;28;20332;-86
2023/07/15 05:30:22;;;;;;;;;;;;;;;;;;5019848;28;19983;-86
2023/07/15 05:32:48;;;;;;;;;;;;;;;;;;5020123;28;19924;-87
2023/07/15 05:35:14;;;;;;;;;;;;;;;;;;5003474;28;20439;-87
2023/07/15 05:37:40;;;;;;;;;;;;;;;;;;5002970;28;19971;-85
2023/07/15 05:40:09;;;;;;;;;;;;;;;;;;5018589;28;19921;-86
2023/07/15 05:42:35;;;;;;;;;;;;;;;;;;5019411;28;19921;-87
2023/07/15 05:45:02;;;;;;;;;;;;;;;;;;5003020;28;19921;-85
2023/07/15 05:47:28;;;;;;;;;;;;;;;;;;5019704;28;19928;-85
2023/07/15 05:49:54;;;;;;;;;;;;;;;;;;5003108;28;20306;-85
2023/07/15 05:52:20;;;;;;;;;;;;;;;;;;5019305;28;19928;-86
2023/07/15 05:54:46;;;;;;;;;;;;;;;;;;5003220;28;19922;-86
2023/07/15 05:57:12;;;;;;;;;;;;;;;;;;5002880;28;19928;-86
2023/07/15 05:59:38;;;;;;;;;;;;;;;;;;5002491;28;20018;-86
2023/07/15 06:02:04;;;;;;;;;;;;;;;;;;5002140;28;19932;-86
2023/07/15 06:04:30;;;;;;;;;;;;;;;;;;5001813;28;19921;-87
2023/07/15 06:06:56;;;;;;;;;;;;;;;;;;5002266;28;19921;-86
2023/07/15 06:09:22;;;;;;;;;;;;;;;;;;5002024;28;19945;-86
2023/07/15 06:11:48;;;;;;;;;;;;;;;;;;5001350;28;19968;-86
2023/07/15 06:14:14;;;;;;;;;;;;;;;;;;5001753;28;19925;-86
2023/07/15 06:16:39;;;;;;;;;;;;;;;;;;5018605;28;20368;-86
2023/07/15 06:19:05;;;;;;;;;;;;;;;;;;5002132;28;19931;-86
2023/07/15 06:21:31;;;;;;;;;;;;;;;;;;5002390;28;20008;-87
2023/07/15 06:23:57;;;;;;;;;;;;;;;;;;5018445;28;19965;-87
2023/07/15 06:26:23;;;;;;;;;;;;;;;;;;5018358;28;20399;-87
2023/07/15 06:28:49;;;;;;;;;;;;;;;;;;5018463;28;19921;-87
2023/07/15 06:31:15;;;;;;;;;;;;;;;;;;5001591;28;19928;-86
2023/07/15 06:33:44;;;;;;;;;;;;;;;;;;5000989;28;19925;-87
2023/07/15 06:36:10;;;;;;;;;;;;;;;;;;5001785;28;20299;-87
2023/07/15 06:38:36;;;;;;;;;;;;;;;;;;5000993;28;19956;-87
2023/07/15 06:41:02;;;;;;;;;;;;;;;;;;5001642;28;19921;-87
2023/07/15 06:43:28;;;;;;;;;;;;;;;;;;5001786;28;19928;-86
2023/07/15 06:45:54;;;;;;;;;;;;;;;;;;5001466;28;19929;-87
2023/07/15 06:48:20;;;;;;;;;;;;;;;;;;5001353;28;19951;-87
2023/07/15 06:50:46;;;;;;;;;;;;;;;;;;5033112;28;19921;-88
2023/07/15 06:53:12;;;;;;;;;;;;;;;;;;5018278;28;19925;-90
2023/07/15 06:55:38;;;;;;;;;;;;;;;;;;5019297;28;20008;-88
2023/07/15 06:58:06;;;;;;;;;;;;;;;;;;5019225;28;20009;-89
2023/07/15 07:00:32;;;;;;;;;;;;;;;;;;5019922;28;19921;-89
2023/07/15 07:02:59;;;;;;;;;;;;;;;;;;5003829;28;19963;-91
2023/07/15 07:05:25;;;;;;;;;;;;;;;;;;5003473;28;20288;-89
2023/07/15 07:07:51;;;;;;;;;;;;;;;;;;5018683;28;20302;-89
2023/07/15 07:10:16;;;;;;;;;;;;;;;;;;5019205;28;19921;-89
2023/07/15 07:12:42;;;;;;;;;;;;;;;;;;5003325;28;19929;-89
2023/07/15 07:15:08;;;;;;;;;;;;;;;;;;5002229;28;20015;-88
2023/07/15 07:17:34;;;;;;;;;;;;;;;;;;5002028;28;19964;-88
2023/07/15 07:20:00;;;;;;;;;;;;;;;;;;5001630;28;19968;-88
2023/07/15 07:22:29;;;;;;;;;;;;;;;;;;5018044;28;19928;-87
2023/07/15 07:24:55;;;;;;;;;;;;;;;;;;5001443;28;19988;-89
2023/07/15 07:27:22;;;;;;;;;;;;;;;;;;5018390;28;19928;-87
2023/07/15 07:29:48;;;;;;;;;;;;;;;;;;5002033;28;20275;-88
2023/07/15 07:32:14;;;;;;;;;;;;;;;;;;5001905;28;20394;-89
2023/07/15 07:34:40;;;;;;;;;;;;;;;;;;5018364;28;20399;-88
2023/07/15 07:37:06;;;;;;;;;;;;;;;;;;5003051;28;19921;-88
2023/07/15 07:42:08;;;;;;;;;;;;;;;;;;5019037;28;19921;-89
2023/07/15 07:44:41;;;;;;;;;;;;;;;;;;5004104;28;19921;-89
2023/07/15 07:47:07;;;;;;;;;;;;;;;;;;5004152;28;19944;-90
2023/07/15 07:49:33;;;;;;;;;;;;;;;;;;5001902;28;20372;-88
2023/07/15 07:52:00;;;;;;;;;;;;;;;;;;5001028;28;19929;-87
2023/07/15 07:54:26;;;;;;;;;;;;;;;;;;5000814;28;20011;-87
2023/07/15 07:56:53;;;;;;;;;;;;;;;;;;5017861;28;19929;-88
2023/07/15 08:02:21;;;;;;;;;;;;;;;;;;4997470;28;19975;-87
2023/07/15 08:04:50;;;;;;;;;;;;;;;;;;4986105;28;19921;-87
2023/07/15 08:07:28;;;;;;;;;;;;;;;;;;4994685;28;20003;-87
2023/07/15 08:09:54;;;;;;;;;;;;;;;;;;4986574;28;19929;-89
2023/07/15 08:12:20;;;;;;;;;;;;;;;;;;5020367;28;19921;-90
2023/07/15 08:14:52;;;;;;;;;;;;;;;;;;5005522;28;19921;-88
2023/07/15 08:17:18;;;;;;;;;;;;;;;;;;5021593;28;19971;-86
2023/07/15 08:19:44;;;;;;;;;;;;;;;;;;5004383;28;19933;-89
2023/07/15 08:22:10;;;;;;;;;;;;;;;;;;5006763;28;19971;-90
2023/07/15 08:24:36;;;;;;;;;;;;;;;;;;5005085;28;20016;-89
2023/07/15 08:27:02;;;;;;;;;;;;;;;;;;5006179;28;19943;-92
2023/07/15 08:29:28;;;;;;;;;;;;;;;;;;5005487;28;19921;-87
2023/07/15 08:31:54;;;;;;;;;;;;;;;;;;5005749;28;20289;-90
2023/07/15 08:34:20;;;;;;;;;;;;;;;;;;5004364;28;20346;-90
2023/07/15 08:36:46;;;;;;;;;;;;;;;;;;5003240;28;20054;-89
2023/07/15 08:39:12;;;;;;;;;;;;;;;;;;5001828;28;20063;-87
2023/07/15 08:41:38;;;;;;;;;;;;;;;;;;5005573;28;19971;-91
2023/07/15 08:44:04;;;;;;;;;;;;;;;;;;5006011;28;19921;-91
2023/07/15 08:46:35;;;;;;;;;;;;;;;;;;5004735;28;19921;-91
2023/07/15 08:49:01;;;;;;;;;;;;;;;;;;5007347;28;19910;-90
2023/07/15 08:51:26;;;;;;;;;;;;;;;;;;5006914;28;19921;-89
2023/07/15 08:53:52;;;;;;;;;;;;;;;;;;5003277;28;19976;-92
2023/07/15 08:56:18;;;;;;;;;;;;;;;;;;4999978;28;19922;-90
2023/07/15 08:58:46;;;;;;;;;;;;;;;;;;5016056;28;20011;-89
2023/07/15 09:01:12;;;;;;;;;;;;;;;;;;5006684;28;19960;-90
2023/07/15 09:03:41;;;;;;;;;;;;;;;;;;5040654;28;19921;-91
2023/07/15 09:06:07;;;;;;;;;;;;;;;;;;5013382;28;20304;-90
2023/07/15 09:08:33;;;;;;;;;;;;;;;;;;5006514;28;19928;-91
2023/07/15 09:10:59;;;;;;;;;;;;;;;;;;5006792;28;19921;-90
2023/07/15 09:13:25;;;;;;;;;;;;;;;;;;5006682;28;20012;-90
2023/07/15 09:15:51;;;;;;;;;;;;;;;;;;5004884;28;20439;-92
2023/07/15 09:18:18;;;;;;;;;;;;;;;;;;5006748;28;20410;-92
2023/07/15 09:20:44;;;;;;;;;;;;;;;;;;5023472;28;19932;-92
2023/07/15 09:23:11;;;;;;;;;;;;;;;;;;5024686;28;19975;-89
2023/07/15 09:25:37;;;;;;;;;;;;;;;;;;5024985;28;19928;-92
2023/07/15 09:28:03;;;;;;;;;;;;;;;;;;5023282;28;19988;-92
2023/07/15 09:30:30;;;;;;;;;;;;;;;;;;5005641;28;19973;-90
2023/07/15 09:32:56;;;;;;;;;;;;;;;;;;5005704;28;19925;-90
2023/07/15 09:35:22;;;;;;;;;;;;;;;;;;5020895;28;20296;-91
2023/07/15 09:37:51;;;;;;;;;;;;;;;;;;5006334;28;19944;-90
2023/07/15 09:40:17;;;;;;;;;;;;;;;;;;5005341;28;19921;-91
2023/07/15 09:42:43;;;;;;;;;;;;;;;;;;5005512;28;19961;-92
2023/07/15 09:45:10;;;;;;;;;;;;;;;;;;5021895;28;19921;-92
2023/07/15 09:47:37;;;;;;;;;;;;;;;;;;4996249;28;20000;-90
2023/07/15 09:50:03;;;;;;;;;;;;;;;;;;4995740;28;19922;-91
2023/07/15 09:52:28;;;;;;;;;;;;;;;;;;4997782;28;19921;-91
2023/07/15 09:54:54;;;;;;;;;;;;;;;;;;5006241;28;19975;-89
2023/07/15 09:57:20;;;;;;;;;;;;;;;;;;5005305;28;19921;-91
2023/07/15 09:59:46;;;;;;;;;;;;;;;;;;5011122;28;19925;-91
2023/07/15 10:02:23;;;;;;;;;;;;;;;;;;5001638;28;19925;-90
2023/07/15 10:04:51;;;;;;;;;;;;;;;;;;5004206;28;19921;-91
2023/07/15 10:07:17;;;;;;;;;;;;;;;;;;5010645;28;20016;-91
2023/07/15 10:09:45;;;;;;;;;;;;;;;;;;5016466;28;19956;-92
2023/07/15 10:12:11;;;;;;;;;;;;;;;;;;5005421;28;19949;-91
2023/07/15 10:14:44;;;;;;;;;;;;;;;;;;5004694;28;19926;-91
2023/07/15 10:17:10;;;;;;;;;;;;;;;;;;5011917;28;19936;-91
2023/07/15 10:19:42;;;;;;;;;;;;;;;;;;5004857;28;19921;-92
2023/07/15 10:22:08;;;;;;;;;;;;;;;;;;5005703;28;20003;-91
2023/07/15 10:27:42;;;;;;;;;;;;;;;;;;5037715;28;20406;-93
2023/07/15 10:30:12;;;;;;;;;;;;;;;;;;5022156;28;19921;-90
2023/07/15 10:32:38;;;;;;;;;;;;;;;;;;5005243;28;20285;-92
2023/07/15 10:35:04;;;;;;;;;;;;;;;;;;5022782;28;19928;-88
2023/07/15 10:37:30;;;;;;;;;;;;;;;;;;5004808;28;19932;-91
2023/07/15 10:39:56;;;;;;;;;;;;;;;;;;5004494;28;19921;-93
2023/07/15 10:42:22;;;;;;;;;;;;;;;;;;5003667;28;19921;-91
2023/07/15 10:44:48;;;;;;;;;;;;;;;;;;5003617;28;19957;-93
2023/07/15 10:47:15;;;;;;;;;;;;;;;;;;5004303;28;19993;-94
2023/07/15 10:49:41;;;;;;;;;;;;;;;;;;5002837;28;19970;-95
2023/07/15 10:52:08;;;;;;;;;;;;;;;;;;5001702;28;19975;-91
2023/07/15 10:54:34;;;;;;;;;;;;;;;;;;5004239;28;19925;-94
2023/07/15 10:57:00;;;;;;;;;;;;;;;;;;5007024;28;20020;-92
2023/07/15 10:59:26;;;;;;;;;;;;;;;;;;5006254;28;19929;-92
2023/07/15 11:01:52;;;;;;;;;;;;;;;;;;5021949;28;19936;-91
2023/07/15 11:04:18;;;;;;;;;;;;;;;;;;5005076;28;19971;-93
2023/07/15 11:06:44;;;;;;;;;;;;;;;;;;5005585;28;19922;-93
2023/07/15 11:09:09;;;;;;;;;;;;;;;;;;5006126;28;19921;-94
2023/07/15 11:11:35;;;;;;;;;;;;;;;;;;5005732;28;19991;-92
2023/07/15 11:14:01;;;;;;;;;;;;;;;;;;4995198;28;19932;-90
2023/07/15 11:19:16;;;;;;;;;;;;;;;;;;5016835;28;19921;-89
2023/07/15 11:21:42;;;;;;;;;;;;;;;;;;5003708;28;20402;-95
2023/07/15 11:24:12;;;;;;;;;;;;;;;;;;5021548;28;19953;-92
2023/07/15 11:26:38;;;;;;;;;;;;;;;;;;5004326;28;19925;-93
2023/07/15 11:29:04;;;;;;;;;;;;;;;;;;5003869;28;19965;-92
2023/07/15 11:31:30;;;;;;;;;;;;;;;;;;5003209;28;19928;-91
2023/07/15 11:33:57;;;;;;;;;;;;;;;;;;5003898;28;19925;-92
2023/07/15 11:36:23;;;;;;;;;;;;;;;;;;5003894;28;19929;-91
2023/07/15 11:38:49;;;;;;;;;;;;;;;;;;4999602;28;19921;-92
2023/07/15 11:41:15;;;;;;;;;;;;;;;;;;4995491;28;20291;-93
2023/07/15 11:43:41;;;;;;;;;;;;;;;;;;5017988;28;19921;-90
2023/07/15 11:46:07;;;;;;;;;;;;;;;;;;5002828;28;20016;-92
2023/07/15 11:48:33;;;;;;;;;;;;;;;;;;5003255;28;20354;-90
2023/07/15 11:50:59;;;;;;;;;;;;;;;;;;4999319;28;20415;-91
2023/07/15 11:53:25;;;;;;;;;;;;;;;;;;5020523;28;19929;-91
2023/07/15 11:55:51;;;;;;;;;;;;;;;;;;5003325;28;19925;-91
2023/07/15 11:58:17;;;;;;;;;;;;;;;;;;5003630;28;20372;-91
2023/07/15 12:00:43;;;;;;;;;;;;;;;;;;5003138;28;19921;-93
2023/07/15 12:03:09;;;;;;;;;;;;;;;;;;5004176;28;19929;-92
2023/07/15 12:05:35;;;;;;;;;;;;;;;;;;5004076;28;19932;-95
2023/07/15 12:08:01;;;;;;;;;;;;;;;;;;5003235;28;19921;-91
2023/07/15 12:10:35;;;;;;;;;;;;;;;;;;5004938;28;19963;-91
2023/07/15 12:13:01;;;;;;;;;;;;;;;;;;5002335;28;19926;-91
2023/07/15 12:15:29;;;;;;;;;;;;;;;;;;5002798;28;20465;-93
2023/07/15 12:17:55;;;;;;;;;;;;;;;;;;5003542;28;20288;-91
2023/07/15 12:20:21;;;;;;;;;;;;;;;;;;5003849;28;19921;-89
2023/07/15 12:22:50;;;;;;;;;;;;;;;;;;5018267;28;19958;-92
2023/07/15 12:25:16;;;;;;;;;;;;;;;;;;5003712;28;20299;-92
2023/07/15 12:27:41;;;;;;;;;;;;;;;;;;5006383;28;19921;-94
2023/07/15 12:30:07;;;;;;;;;;;;;;;;;;5006671;28;19921;-93
2023/07/15 12:32:33;;;;;;;;;;;;;;;;;;5004629;28;19917;-94
2023/07/15 12:34:59;;;;;;;;;;;;;;;;;;5005210;28;19921;-94
2023/07/15 12:37:25;;;;;;;;;;;;;;;;;;5002657;28;19925;-89
2023/07/15 12:39:51;;;;;;;;;;;;;;;;;;5016631;28;19921;-90
2023/07/15 12:42:17;;;;;;;;;;;;;;;;;;4997941;28;20004;-89
2023/07/15 12:44:43;;;;;;;;;;;;;;;;;;5005140;28;19925;-90
2023/07/15 12:47:09;;;;;;;;;;;;;;;;;;4987857;28;19983;-90
2023/07/15 12:49:35;;;;;;;;;;;;;;;;;;5003298;28;19925;-93
2023/07/15 12:52:01;;;;;;;;;;;;;;;;;;5008242;28;19977;-91
2023/07/15 12:54:27;;;;;;;;;;;;;;;;;;5007472;28;19925;-92
2023/07/15 12:56:53;;;;;;;;;;;;;;;;;;5024285;28;19925;-92
2023/07/15 12:59:26;;;;;;;;;;;;;;;;;;5024422;28;20380;-91
2023/07/15 13:01:52;;;;;;;;;;;;;;;;;;5007472;28;19925;-92
2023/07/15 13:04:18;;;;;;;;;;;;;;;;;;5007115;28;20522;-93
2023/07/15 13:06:44;;;;;;;;;;;;;;;;;;5006648;28;19929;-92
2023/07/15 13:09:10;;;;;;;;;;;;;;;;;;5031617;28;19921;-92
2023/07/15 13:11:36;;;;;;;;;;;;;;;;;;5026785;28;19946;-92
2023/07/15 13:14:03;;;;;;;;;;;;;;;;;;5022680;28;20398;-94
2023/07/15 13:16:29;;;;;;;;;;;;;;;;;;5039948;28;20431;-91
2023/07/15 13:18:58;;;;;;;;;;;;;;;;;;5038055;28;20022;-90
2023/07/15 13:21:24;;;;;;;;;;;;;;;;;;5016546;28;20025;-90
2023/07/15 13:23:59;;;;;;;;;;;;;;;;;;5005272;28;19976;-92
2023/07/15 13:26:25;;;;;;;;;;;;;;;;;;5005271;28;19925;-89
2023/07/15 13:28:51;;;;;;;;;;;;;;;;;;5006626;28;19928;-90
2023/07/15 13:31:17;;;;;;;;;;;;;;;;;;5007087;28;20397;-92
2023/07/15 13:33:43;;;;;;;;;;;;;;;;;;5022156;28;19971;-90
2023/07/15 13:36:09;;;;;;;;;;;;;;;;;;5005679;28;19928;-95
2023/07/15 13:38:35;;;;;;;;;;;;;;;;;;5004482;28;20437;-90
2023/07/15 13:41:02;;;;;;;;;;;;;;;;;;5006737;28;19921;-90
2023/07/15 13:43:29;;;;;;;;;;;;;;;;;;5023417;28;20434;-92
2023/07/15 13:45:54;;;;;;;;;;;;;;;;;;5008401;28;19972;-93
2023/07/15 13:48:20;;;;;;;;;;;;;;;;;;5005712;28;19928;-90
2023/07/15 13:50:46;;;;;;;;;;;;;;;;;;5022271;28;20012;-92
2023/07/15 13:53:12;;;;;;;;;;;;;;;;;;5005995;28;20003;-90
2023/07/15 13:55:39;;;;;;;;;;;;;;;;;;5005434;28;19928;-94
2023/07/15 13:58:05;;;;;;;;;;;;;;;;;;5005708;28;19925;-90
2023/07/15 14:00:31;;;;;;;;;;;;;;;;;;5019950;28;19928;-91
2023/07/15 14:02:57;;;;;;;;;;;;;;;;;;5005639;28;19921;-90
2023/07/15 14:05:23;;;;;;;;;;;;;;;;;;5021692;28;20007;-90
2023/07/15 14:07:50;;;;;;;;;;;;;;;;;;5023207;28;19933;-92
2023/07/15 14:10:16;;;;;;;;;;;;;;;;;;5005683;28;19921;-93
2023/07/15 14:12:42;;;;;;;;;;;;;;;;;;5006204;28;19952;-91
2023/07/15 14:15:08;;;;;;;;;;;;;;;;;;5005767;28;20342;-92
2023/07/15 14:17:34;;;;;;;;;;;;;;;;;;5021656;28;20438;-88
2023/07/15 14:20:00;;;;;;;;;;;;;;;;;;5004513;28;19928;-91
2023/07/15 14:22:26;;;;;;;;;;;;;;;;;;5021992;28;20284;-90
2023/07/15 14:27:56;;;;;;;;;;;;;;;;;;5040854;28;19924;-90
2023/07/15 14:30:22;;;;;;;;;;;;;;;;;;5005160;28;19921;-92
2023/07/15 14:32:48;;;;;;;;;;;;;;;;;;5007685;28;19925;-91
2023/07/15 14:35:14;;;;;;;;;;;;;;;;;;5007259;28;19921;-90
2023/07/15 14:37:39;;;;;;;;;;;;;;;;;;5006604;28;19921;-92
2023/07/15 14:40:06;;;;;;;;;;;;;;;;;;5005599;28;20292;-89
2023/07/15 14:42:32;;;;;;;;;;;;;;;;;;5025171;28;19972;-92
2023/07/15 14:45:00;;;;;;;;;;;;;;;;;;5008310;28;19960;-91
2023/07/15 14:47:25;;;;;;;;;;;;;;;;;;5007679;28;19981;-89
2023/07/15 14:49:51;;;;;;;;;;;;;;;;;;5007072;28;19965;-90
2023/07/15 14:52:17;;;;;;;;;;;;;;;;;;5022888;28;19928;-88
2023/07/15 14:54:48;;;;;;;;;;;;;;;;;;5006262;28;19925;-91
2023/07/15 14:57:14;;;;;;;;;;;;;;;;;;5007067;28;19921;-89
2023/07/15 14:59:40;;;;;;;;;;;;;;;;;;5024597;28;20326;-91
2023/07/15 15:02:06;;;;;;;;;;;;;;;;;;5009978;28;19932;-92
2023/07/15 15:04:31;;;;;;;;;;;;;;;;;;5008105;28;19921;-91
2023/07/15 15:06:57;;;;;;;;;;;;;;;;;;5024918;28;20283;-89
2023/07/15 15:09:24;;;;;;;;;;;;;;;;;;5022160;28;20376;-90
2023/07/15 15:11:50;;;;;;;;;;;;;;;;;;5007352;28;19928;-89
2023/07/15 15:14:17;;;;;;;;;;;;;;;;;;4986595;28;19936;-90
2023/07/15 15:16:43;;;;;;;;;;;;;;;;;;4985877;28;19921;-89
2023/07/15 15:19:10;;;;;;;;;;;;;;;;;;5006272;28;19935;-89
2023/07/15 15:21:36;;;;;;;;;;;;;;;;;;5023427;28;19956;-92
2023/07/15 15:24:04;;;;;;;;;;;;;;;;;;5005801;28;20403;-91
2023/07/15 15:26:30;;;;;;;;;;;;;;;;;;5005509;28;19921;-91
2023/07/15 15:28:56;;;;;;;;;;;;;;;;;;5004055;28;20405;-89
2023/07/15 15:31:22;;;;;;;;;;;;;;;;;;5007378;28;20446;-89
2023/07/15 15:33:48;;;;;;;;;;;;;;;;;;5001748;28;20392;-92
2023/07/15 15:36:14;;;;;;;;;;;;;;;;;;5001654;28;19922;-90
2023/07/15 15:38:39;;;;;;;;;;;;;;;;;;4986358;28;19921;-91
2023/07/15 15:41:05;;;;;;;;;;;;;;;;;;4986149;28;19932;-92
2023/07/15 15:43:31;;;;;;;;;;;;;;;;;;4988897;28;19960;-89
2023/07/15 15:45:57;;;;;;;;;;;;;;;;;;5019525;28;19921;-90
2023/07/15 15:48:23;;;;;;;;;;;;;;;;;;5002880;28;20449;-90
2023/07/15 15:50:49;;;;;;;;;;;;;;;;;;5020109;28;20268;-89
2023/07/15 15:53:15;;;;;;;;;;;;;;;;;;5002946;28;19929;-92
2023/07/15 15:55:42;;;;;;;;;;;;;;;;;;5003017;28;19921;-90
2023/07/15 15:58:08;;;;;;;;;;;;;;;;;;5020119;28;19921;-89
2023/07/15 16:00:34;;;;;;;;;;;;;;;;;;5003914;28;19925;-91
2023/07/15 16:03:00;;;;;;;;;;;;;;;;;;5020179;28;19921;-89
2023/07/15 16:05:26;;;;;;;;;;;;;;;;;;5003581;28;20007;-89
2023/07/15 16:07:52;;;;;;;;;;;;;;;;;;5003440;28;20343;-90
2023/07/15 16:10:18;;;;;;;;;;;;;;;;;;5003276;28;19928;-90
2023/07/15 16:12:44;;;;;;;;;;;;;;;;;;5003711;28;20348;-89
2023/07/15 16:15:10;;;;;;;;;;;;;;;;;;5003568;28;19990;-90
2023/07/15 16:17:35;;;;;;;;;;;;;;;;;;5003702;28;19952;-89
2023/07/15 16:22:35;;;;;;;;;;;;;;;;;;5019317;28;19925;-90
2023/07/15 16:25:01;;;;;;;;;;;;;;;;;;5009172;28;19921;-90
2023/07/15 16:27:27;;;;;;;;;;;;;;;;;;4990420;28;19928;-89
2023/07/15 16:29:53;;;;;;;;;;;;;;;;;;4989447;28;19932;-91
2023/07/15 16:32:19;;;;;;;;;;;;;;;;;;4991232;28;19975;-91
2023/07/15 16:34:45;;;;;;;;;;;;;;;;;;5007509;28;19930;-90
2023/07/15 16:37:11;;;;;;;;;;;;;;;;;;5005687;28;20017;-90
2023/07/15 16:39:38;;;;;;;;;;;;;;;;;;4989562;28;20365;-91
2023/07/15 16:42:04;;;;;;;;;;;;;;;;;;5026498;28;20291;-89
2023/07/15 16:44:29;;;;;;;;;;;;;;;;;;5026085;28;19924;-88
2023/07/15 16:46:55;;;;;;;;;;;;;;;;;;5041300;28;19932;-90
2023/07/15 16:49:21;;;;;;;;;;;;;;;;;;5025359;28;19921;-89
2023/07/15 16:51:47;;;;;;;;;;;;;;;;;;5042603;28;19921;-89
2023/07/15 16:54:13;;;;;;;;;;;;;;;;;;5025869;28;20046;-88
2023/07/15 16:56:39;;;;;;;;;;;;;;;;;;5022776;28;19929;-90
2023/07/15 16:59:06;;;;;;;;;;;;;;;;;;5006598;28;19967;-90